Latest Coastal Weather Observations for Gannett Cay

IDQ60701

Issued at 9:42 am EST Tuesday 26 May 2015 (issued every 10 minutes, with the page automatically refreshed every 10 minutes)

About coastal observations | Map of coastal stations | Coastal observations for QLD | Marine services | Other Formats
Station Details ID: 200831 Name: GANNET CAY Lat: -21.98 Lon: 152.47 Height: 2.3 m
Data from the previous 72 hours. | See also: Recent months for locations in Queensland
Date/Time
EST
Temp

°C
Wind Pressure Rain
since 9am
mm
Weather Cloud Vis
km
Sea
Height
m
Swell
Dir
 
Speed
knots
Gust
knots
hPa Trend Height
m
Period
s
Dir
26/09:30am 23.5 E 20 23 1023.8 - - - - - - - - -
26/09:00am 23.6 ESE 19 22 1023.7 - - - - - - - - -
26/08:30am 23.3 E 18 21 1023.8 - - - - - - - - -
26/08:00am 22.7 E 20 24 1023.6 - - - - - - - - -
26/07:59am 22.7 E 20 24 1023.5 - - - - - - - - -
26/07:30am 23.7 SE 17 21 1023.8 - - - - - - - - -
26/07:17am 23.4 SSE 21 24 1023.5 - - - - - - - - -
26/07:00am 23.4 ESE 17 23 1023.4 - - - - - - - - -
26/06:30am 23.7 E 16 19 1023.3 - - - - - - - - -
26/06:00am 23.6 ESE 16 19 1023.1 - - - - - - - - -
26/05:30am 22.5 ENE 15 21 1022.9 - - - - - - - - -
26/05:00am 23.4 ESE 18 21 1022.3 - - - - - - - - -
26/04:30am 23.4 ESE 16 19 1022.4 - - - - - - - - -
26/04:00am 23.4 ESE 17 21 1022.2 - - - - - - - - -
26/03:30am 23.4 E 16 19 1022.5 - - - - - - - - -
26/03:00am 23.3 ESE 18 22 1022.4 - - - - - - - - -
26/02:30am 23.3 ESE 18 22 1022.5 - - - - - - - - -
26/02:00am 23.3 ESE 18 21 1022.7 - - - - - - - - -
26/01:30am 23.4 ESE 20 22 1023.0 - - - - - - - - -
26/01:00am 23.4 ESE 21 24 1023.2 - - - - - - - - -
26/12:30am 23.4 ESE 20 23 1023.6 - - - - - - - - -
26/12:00am 23.5 ESE 20 23 1023.8 - - - - - - - - -
 
Date/Time
EST
Temp

°C
Wind Pressure Rain
since 9am
mm
Weather Cloud Vis
km
Sea
Height
m
Swell
Dir
 
Speed
knots
Gust
knots
hPa Trend Height
m
Period
s
Dir
25/11:30pm 23.5 ESE 21 24 1024.3 - - - - - - - - -
25/11:00pm 23.5 ESE 21 25 1024.2 - - - - - - - - -
25/10:30pm 23.5 ESE 21 24 1024.4 - - - - - - - - -
25/10:00pm 23.4 ESE 21 25 1024.5 - - - - - - - - -
25/09:30pm 23.5 ESE 22 26 1024.3 - - - - - - - - -
25/09:00pm 23.5 ESE 23 25 1023.9 - - - - - - - - -
25/08:30pm 23.5 ESE 21 23 1024.1 - - - - - - - - -
25/08:00pm 23.5 ESE 21 25 1023.9 - - - - - - - - -
25/07:30pm 23.6 ESE 21 24 1023.8 - - - - - - - - -
25/07:00pm 23.6 ESE 22 25 1023.5 - - - - - - - - -
25/06:30pm 23.5 ESE 22 25 1023.3 - - - - - - - - -
25/06:00pm 23.5 ESE 23 27 1022.9 - - - - - - - - -
25/05:30pm 23.4 ESE 20 25 1023.1 - - - - - - - - -
25/05:00pm 23.5 ESE 21 25 1023.0 - - - - - - - - -
25/04:30pm 23.5 ESE 22 25 1023.2 - - - - - - - - -
25/04:00pm 23.8 ESE 21 23 1023.0 - - - - - - - - -
25/03:30pm 23.6 ESE 20 23 1022.8 - - - - - - - - -
25/03:00pm 23.7 ESE 21 25 1022.4 - - - - - - - - -
25/02:30pm 22.9 SE 18 22 1022.6 - - - - - - - - -
25/02:00pm 22.1 SE 26 29 1022.6 - - - - - - - - -
25/01:58pm 22.1 SE 26 29 1022.6 - - - - - - - - -
25/01:30pm 23.5 ESE 21 24 1022.9 - - - - - - - - -
25/01:00pm 22.8 SE 17 21 1023.0 - - - - - - - - -
25/12:30pm 22.3 ESE 25 28 1023.8 - - - - - - - - -
25/12:26pm 22.8 ESE 15 27 1023.8 - - - - - - - - -
25/12:00pm 21.6 ESE 20 24 1024.2 - - - - - - - - -
25/11:46am 22.5 E 21 31 1024.4 - - - - - - - - -
25/11:30am 22.0 E 22 30 1024.7 - - - - - - - - -
25/11:00am 22.3 E 25 31 1024.7 - - - - - - - - -
25/10:30am 23.2 ESE 22 25 1024.8 - - - - - - - - -
25/10:00am 22.4 E 29 33 1024.9 - - - - - - - - -
25/09:30am 23.5 ESE 25 29 1025.0 - - - - - - - - -
25/09:00am 23.8 ESE 23 27 1025.3 - - - - - - - - -
25/08:30am 23.4 ESE 18 21 1024.8 - - - - - - - - -
25/08:25am 23.1 ESE 19 21 1024.6 - - - - - - - - -
25/08:03am 21.0 E 20 26 1024.6 - - - - - - - - -
25/08:00am 22.0 ESE 22 28 1024.7 - - - - - - - - -
25/07:30am 22.6 ESE 21 30 1024.7 - - - - - - - - -
25/07:00am 22.4 ESE 23 28 1024.2 - - - - - - - - -
25/06:30am 22.7 E 25 29 1024.0 - - - - - - - - -
25/06:00am 22.3 E 28 32 1023.8 - - - - - - - - -
25/05:30am 22.9 E 23 28 1023.5 - - - - - - - - -
25/05:00am 22.9 E 24 30 1023.1 - - - - - - - - -
25/04:30am 23.2 E 24 27 1023.0 - - - - - - - - -
25/04:00am 23.4 ESE 25 29 1022.8 - - - - - - - - -
25/03:37am 23.2 ESE 24 26 1023.1 - - - - - - - - -
25/03:30am 22.5 E 18 21 1023.2 - - - - - - - - -
25/03:00am 22.8 E 21 27 1023.6 - - - - - - - - -
25/02:30am 23.3 E 23 27 1023.4 - - - - - - - - -
25/02:00am 23.4 ESE 23 26 1023.3 - - - - - - - - -
25/01:30am 23.4 ESE 25 31 1023.4 - - - - - - - - -
25/01:00am 23.4 ESE 26 30 1023.5 - - - - - - - - -
25/12:30am 23.4 ESE 26 31 1023.7 - - - - - - - - -
25/12:00am 23.4 ESE 24 28 1023.8 - - - - - - - - -
 
Date/Time
EST
Temp

°C
Wind Pressure Rain
since 9am
mm
Weather Cloud Vis
km
Sea
Height
m
Swell
Dir
 
Speed
knots
Gust
knots
hPa Trend Height
m
Period
s
Dir
24/11:30pm 23.4 ESE 25 29 1024.1 - - - - - - - - -
24/11:00pm 23.5 ESE 25 29 1024.1 - - - - - - - - -
24/10:30pm 23.3 SE 25 30 1024.2 - - - - - - - - -
24/10:00pm 23.4 ESE 25 29 1024.1 - - - - - - - - -
24/09:30pm 23.3 ESE 26 31 1024.2 - - - - - - - - -
24/09:00pm 23.4 ESE 23 28 1024.1 - - - - - - - - -
24/08:30pm 23.5 ESE 24 27 1024.1 - - - - - - - - -
24/08:00pm 23.4 ESE 25 28 1024.0 - - - - - - - - -
24/07:30pm 23.5 ESE 25 29 1023.8 - - - - - - - - -
24/07:00pm 23.6 ESE 24 30 1023.4 - - - - - - - - -
24/06:30pm 23.5 ESE 25 30 1023.0 - - - - - - - - -
24/06:00pm 23.4 ESE 26 29 1022.7 - - - - - - - - -
24/05:30pm 23.3 SE 27 33 1022.6 - - - - - - - - -
24/05:00pm 23.6 ESE 25 29 1022.2 - - - - - - - - -
24/04:30pm 23.7 ESE 26 30 1022.1 - - - - - - - - -
24/04:00pm 23.8 ESE 24 29 1021.4 - - - - - - - - -
24/03:30pm 23.9 ESE 24 28 1021.3 - - - - - - - - -
24/03:00pm 23.6 ESE 24 28 1021.2 - - - - - - - - -
24/02:30pm 23.8 ESE 25 28 1021.3 - - - - - - - - -
24/02:00pm 23.8 ESE 24 28 1021.3 - - - - - - - - -
24/01:30pm 23.7 ESE 25 28 1021.4 - - - - - - - - -
24/01:00pm 23.8 ESE 24 28 1021.5 - - - - - - - - -
24/12:30pm 23.8 ESE 25 29 1021.7 - - - - - - - - -
24/12:00pm 23.9 ESE 25 29 1022.1 - - - - - - - - -
24/11:30am 24.0 ESE 26 31 1022.5 - - - - - - - - -
24/11:00am 23.8 ESE 25 29 1022.6 - - - - - - - - -
24/10:30am 23.9 ESE 26 30 1022.9 - - - - - - - - -
24/10:00am 23.8 ESE 26 30 1023.0 - - - - - - - - -
24/09:30am 23.8 SE 27 31 1023.0 - - - - - - - - -
24/09:00am 23.9 ESE 28 33 1022.7 - - - - - - - - -
24/08:30am 23.9 SE 27 31 1022.4 - - - - - - - - -
24/08:00am 23.8 ESE 28 32 1022.0 - - - - - - - - -
24/07:30am 23.6 ESE 28 34 1021.7 - - - - - - - - -
24/07:00am 23.2 ESE 27 32 1021.3 - - - - - - - - -
24/06:30am 23.4 ESE 29 34 1021.0 - - - - - - - - -
24/06:00am 23.4 ESE 29 32 1020.5 - - - - - - - - -
24/05:30am 23.5 SE 28 33 1020.2 - - - - - - - - -
24/05:00am 23.2 SE 27 31 1019.6 - - - - - - - - -
24/04:30am 22.9 SE 28 32 1019.4 - - - - - - - - -
24/04:00am 22.9 SE 28 35 1019.0 - - - - - - - - -
24/03:30am 23.3 SE 25 31 1019.2 - - - - - - - - -
24/03:00am 22.6 SE 27 33 1019.0 - - - - - - - - -
24/02:30am 22.5 SE 25 30 1019.4 - - - - - - - - -
24/02:00am 21.8 SE 27 32 1019.3 - - - - - - - - -
24/01:30am 23.0 SE 25 30 1019.6 - - - - - - - - -
24/01:00am 23.1 SE 26 30 1019.3 - - - - - - - - -
24/12:30am 23.1 SE 27 32 1019.7 - - - - - - - - -
24/12:00am 22.8 SE 24 30 1019.4 - - - - - - - - -
 
Date/Time
EST
Temp

°C
Wind Pressure Rain
since 9am
mm
Weather Cloud Vis
km
Sea
Height
m
Swell
Dir
 
Speed
knots
Gust
knots
hPa Trend Height
m
Period
s
Dir
23/11:30pm 22.6 SE 27 32 1019.7 - - - - - - - - -
23/11:00pm 22.8 SE 27 33 1019.8 - - - - - - - - -
23/10:30pm 22.8 SE 26 32 1019.8 - - - - - - - - -
23/10:00pm 23.1 SE 27 35 1019.8 - - - - - - - - -
23/09:30pm 23.2 SE 29 32 1019.9 - - - - - - - - -
23/09:00pm 23.4 SE 28 33 1019.5 - - - - - - - - -
23/08:30pm 23.2 SE 29 34 1019.5 - - - - - - - - -
23/08:00pm 23.1 SE 29 34 1019.3 - - - - - - - - -
23/07:30pm 23.8 SE 28 32 1019.2 - - - - - - - - -
23/07:00pm 23.6 SE 28 32 1018.8 - - - - - - - - -
23/06:30pm 23.2 SSE 20 25 1018.6 - - - - - - - - -
23/06:00pm 21.8 SSE 22 26 1018.6 - - - - - - - - -
23/05:30pm 20.4 SE 23 29 1018.6 - - - - - - - - -
23/05:15pm 20.9 SE 22 32 1018.5 - - - - - - - - -
23/05:00pm 22.1 SSE 20 23 1018.3 - - - - - - - - -
23/04:30pm 22.3 S 23 28 1018.1 - - - - - - - - -
23/04:00pm 21.1 SSE 24 30 1018.0 - - - - - - - - -
23/03:30pm 22.9 SSE 20 23 1017.7 - - - - - - - - -
23/03:00pm 23.1 S 22 24 1017.6 - - - - - - - - -
23/02:30pm 23.1 S 18 21 1017.8 - - - - - - - - -
23/02:00pm 22.5 SSE 19 22 1017.8 - - - - - - - - -
23/01:30pm 22.8 SSE 18 22 1017.9 - - - - - - - - -
23/01:00pm 22.9 SSE 17 21 1018.2 - - - - - - - - -
23/12:30pm 22.6 SE 17 21 1018.6 - - - - - - - - -
23/12:00pm 22.4 SSE 16 19 1018.9 - - - - - - - - -
23/11:30am 22.1 SSE 16 19 1019.4 - - - - - - - - -
23/11:00am 21.8 SSE 15 19 1019.5 - - - - - - - - -
23/10:30am 21.8 SSE 16 19 1019.8 - - - - - - - - -
23/10:00am 21.7 SSE 17 21 1019.6 - - - - - - - - -

Other Formats:

Comma delimited format used in spreadsheet applications
http://www.bom.gov.au/fwo/IDQ60701/IDQ60701.94379.axf

JavaScript Object Notation format (JSON) in row-major order
http://www.bom.gov.au/fwo/IDQ60701/IDQ60701.94379.json